Time;durP1;ratioP1;P1;durP2;ratioP2;P2;SDS_P1;SDS_P2;PMS_P1;PMS_P2;Temp;Humidity;BMP_temperature;BMP_pressure;BME280_temperature;BME280_humidity;BME280_pressure;Samples;Min_cycle;Max_cycle;Signal;HPM_P1;HPM_P2
2023/12/24 00:00:16;;;;;;;2.10;1.73;;;;;;;;;;5028766;28;20200;-84
2023/12/24 00:02:44;;;;;;;2.80;2.00;;;;;;;;;;5030832;28;20243;-85
2023/12/24 00:05:14;;;;;;;3.67;2.30;;;;;;;;;;5030065;28;20708;-85
2023/12/24 00:07:45;;;;;;;1.97;1.80;;;;;;;;;;5029086;28;20218;-84
2023/12/24 00:10:16;;;;;;;3.77;1.53;;;;;;;;;;5030138;28;20192;-83
2023/12/24 00:12:45;;;;;;;1.40;1.40;;;;;;;;;;5029635;28;20219;-85
2023/12/24 00:15:16;;;;;;;2.03;1.40;;;;;;;;;;5029307;28;20295;-85
2023/12/24 00:17:45;;;;;;;3.00;1.93;;;;;;;;;;5029746;28;20184;-84
2023/12/24 00:20:14;;;;;;;1.40;1.30;;;;;;;;;;5030079;28;20204;-84
2023/12/24 00:22:43;;;;;;;2.63;1.30;;;;;;;;;;5029957;28;20199;-85
2023/12/24 00:25:11;;;;;;;0.97;0.97;;;;;;;;;;5030233;28;20307;-84
2023/12/24 00:27:40;;;;;;;1.40;1.30;;;;;;;;;;5027809;28;20207;-85
2023/12/24 00:30:09;;;;;;;1.27;1.00;;;;;;;;;;5029365;28;20208;-83
2023/12/24 00:32:40;;;;;;;1.23;1.13;;;;;;;;;;5029669;28;20656;-84
2023/12/24 00:35:07;;;;;;;1.20;1.10;;;;;;;;;;5030610;28;20236;-85
2023/12/24 00:37:36;;;;;;;1.10;1.00;;;;;;;;;;5030236;28;20339;-86
2023/12/24 00:40:04;;;;;;;2.83;1.50;;;;;;;;;;5039107;28;20285;-85
2023/12/24 00:42:34;;;;;;;1.20;1.10;;;;;;;;;;5043583;28;20278;-85
2023/12/24 00:45:01;;;;;;;5.07;1.20;;;;;;;;;;5052331;28;20215;-84
2023/12/24 00:47:29;;;;;;;1.47;1.30;;;;;;;;;;5046145;28;20260;-85
2023/12/24 00:50:00;;;;;;;1.50;0.83;;;;;;;;;;5029842;28;20200;-84
2023/12/24 00:52:29;;;;;;;3.30;0.97;;;;;;;;;;5031169;28;20718;-83
2023/12/24 00:54:57;;;;;;;1.50;1.10;;;;;;;;;;5033882;28;20677;-86
2023/12/24 00:57:26;;;;;;;0.93;0.87;;;;;;;;;;5042829;28;20203;-83
2023/12/24 00:59:54;;;;;;;1.57;0.83;;;;;;;;;;5036150;28;20215;-85
2023/12/24 01:02:23;;;;;;;0.60;0.60;;;;;;;;;;5029510;28;20499;-84
2023/12/24 01:04:51;;;;;;;0.70;0.70;;;;;;;;;;5029360;28;20246;-85
2023/12/24 01:07:22;;;;;;;1.10;1.00;;;;;;;;;;5028998;28;20205;-85
2023/12/24 01:09:51;;;;;;;0.80;0.80;;;;;;;;;;5029528;28;20189;-86
2023/12/24 01:12:20;;;;;;;0.67;0.67;;;;;;;;;;5029572;28;20278;-85
2023/12/24 01:14:51;;;;;;;1.33;0.90;;;;;;;;;;5029448;28;20228;-85
2023/12/24 01:17:21;;;;;;;2.10;1.20;;;;;;;;;;5029711;28;20200;-84
2023/12/24 01:19:49;;;;;;;0.77;0.77;;;;;;;;;;5029333;28;20254;-83
2023/12/24 01:22:17;;;;;;;2.13;0.77;;;;;;;;;;5029212;28;20205;-84
2023/12/24 01:24:48;;;;;;;3.20;0.70;;;;;;;;;;5029181;28;20223;-84
2023/12/24 01:27:17;;;;;;;0.40;0.40;;;;;;;;;;5028578;28;20208;-84
2023/12/24 01:29:46;;;;;;;0.80;0.80;;;;;;;;;;5029018;28;20231;-84
2023/12/24 01:32:15;;;;;;;0.70;0.70;;;;;;;;;;5029303;28;20298;-84
2023/12/24 01:34:42;;;;;;;0.77;0.77;;;;;;;;;;5028770;28;20230;-84
2023/12/24 01:37:12;;;;;;;2.60;0.67;;;;;;;;;;5029196;28;20188;-84
2023/12/24 01:39:41;;;;;;;0.90;0.90;;;;;;;;;;5031621;28;20696;-84
2023/12/24 01:42:10;;;;;;;2.93;1.00;;;;;;;;;;5032306;28;20303;-84
2023/12/24 01:44:38;;;;;;;2.33;0.80;;;;;;;;;;5032683;28;20310;-84
2023/12/24 01:47:07;;;;;;;2.97;1.00;;;;;;;;;;5032182;28;20724;-83
2023/12/24 01:49:36;;;;;;;1.03;0.97;;;;;;;;;;5033706;28;20728;-83
2023/12/24 01:52:05;;;;;;;1.60;0.90;;;;;;;;;;5034106;28;20226;-84
2023/12/24 01:54:36;;;;;;;1.13;0.70;;;;;;;;;;5033291;28;20211;-85
2023/12/24 01:57:04;;;;;;;2.60;0.80;;;;;;;;;;5033135;28;20199;-84
2023/12/24 01:59:33;;;;;;;5.83;1.20;;;;;;;;;;5033373;28;20196;-84
2023/12/24 02:02:03;;;;;;;0.50;0.50;;;;;;;;;;5035800;28;20238;-84
2023/12/24 02:04:31;;;;;;;0.67;0.67;;;;;;;;;;5052246;28;20311;-84
2023/12/24 02:07:00;;;;;;;0.77;0.77;;;;;;;;;;5052708;28;20287;-85
2023/12/24 02:09:29;;;;;;;0.63;0.63;;;;;;;;;;5053169;28;20606;-84
2023/12/24 02:12:00;;;;;;;0.53;0.53;;;;;;;;;;5053107;28;20203;-84
2023/12/24 02:14:29;;;;;;;0.50;0.50;;;;;;;;;;5052951;28;20222;-84
2023/12/24 02:17:02;;;;;;;1.03;0.83;;;;;;;;;;5051739;28;20668;-84
2023/12/24 02:19:30;;;;;;;0.57;0.57;;;;;;;;;;5055139;28;20208;-86
2023/12/24 02:22:01;;;;;;;0.80;0.80;;;;;;;;;;5056615;28;20265;-84
2023/12/24 02:24:29;;;;;;;0.70;0.70;;;;;;;;;;5058853;28;20239;-84
2023/12/24 02:27:00;;;;;;;1.00;0.57;;;;;;;;;;5054115;28;20204;-85
2023/12/24 02:29:29;;;;;;;0.70;0.70;;;;;;;;;;5052155;28;20690;-84
2023/12/24 02:31:59;;;;;;;0.47;0.47;;;;;;;;;;5052191;28;20223;-84
2023/12/24 02:34:27;;;;;;;1.20;0.63;;;;;;;;;;5051217;28;20200;-84
2023/12/24 02:36:56;;;;;;;0.57;0.57;;;;;;;;;;5051731;28;20278;-86
2023/12/24 02:39:25;;;;;;;0.40;0.40;;;;;;;;;;5051983;28;20233;-84
2023/12/24 02:41:51;;;;;;;0.70;0.70;;;;;;;;;;5050650;28;20708;-84
2023/12/24 02:44:21;;;;;;;0.87;0.50;;;;;;;;;;5050992;28;20282;-84
2023/12/24 02:46:48;;;;;;;0.47;0.47;;;;;;;;;;5050965;28;20241;-83
2023/12/24 02:49:19;;;;;;;0.80;0.80;;;;;;;;;;5049520;28;20199;-84
2023/12/24 02:51:48;;;;;;;0.77;0.77;;;;;;;;;;5050706;28;20223;-84
2023/12/24 02:54:17;;;;;;;0.60;0.60;;;;;;;;;;5054050;28;20664;-83
2023/12/24 02:56:49;;;;;;;0.60;0.60;;;;;;;;;;5069353;28;20264;-85
2023/12/24 02:59:18;;;;;;;0.53;0.40;;;;;;;;;;5060729;28;20254;-84
2023/12/24 03:01:46;;;;;;;0.67;0.67;;;;;;;;;;5041527;28;20232;-85
2023/12/24 03:04:16;;;;;;;0.70;0.60;;;;;;;;;;5030056;28;20200;-85
2023/12/24 03:06:44;;;;;;;0.60;0.60;;;;;;;;;;5031171;28;20196;-85
2023/12/24 03:09:13;;;;;;;0.60;0.60;;;;;;;;;;5030017;28;20620;-85
2023/12/24 03:11:43;;;;;;;0.70;0.70;;;;;;;;;;5030673;28;20615;-85
2023/12/24 03:14:13;;;;;;;0.77;0.77;;;;;;;;;;5031810;28;20275;-84
2023/12/24 03:16:41;;;;;;;1.90;0.80;;;;;;;;;;5030564;28;20299;-85
2023/12/24 03:19:12;;;;;;;1.40;0.90;;;;;;;;;;5030815;28;20222;-85
2023/12/24 03:21:43;;;;;;;0.77;0.70;;;;;;;;;;5031195;28;20184;-85
2023/12/24 03:24:11;;;;;;;1.77;0.87;;;;;;;;;;5029970;28;20208;-84
2023/12/24 03:26:40;;;;;;;3.23;0.80;;;;;;;;;;5030563;28;20606;-84
2023/12/24 03:29:12;;;;;;;0.60;0.60;;;;;;;;;;5037681;28;20204;-83
2023/12/24 03:31:43;;;;;;;0.87;0.83;;;;;;;;;;5045258;28;20220;-84
2023/12/24 03:34:13;;;;;;;0.70;0.70;;;;;;;;;;5052807;28;20239;-84
2023/12/24 03:36:45;;;;;;;1.07;0.83;;;;;;;;;;5051674;28;20231;-84
2023/12/24 03:39:14;;;;;;;1.00;0.90;;;;;;;;;;5031936;28;20204;-84
2023/12/24 03:41:42;;;;;;;2.47;1.00;;;;;;;;;;5029311;28;20680;-84
2023/12/24 03:44:11;;;;;;;2.40;2.20;;;;;;;;;;5031447;28;20198;-85
2023/12/24 03:46:39;;;;;;;1.13;1.13;;;;;;;;;;5029238;28;20731;-84
2023/12/24 03:49:09;;;;;;;1.27;1.10;;;;;;;;;;5027644;28;20250;-84
2023/12/24 03:51:40;;;;;;;0.97;0.97;;;;;;;;;;5029662;28;20204;-84
2023/12/24 03:54:09;;;;;;;0.93;0.93;;;;;;;;;;5030074;28;20685;-84
2023/12/24 03:56:41;;;;;;;1.80;1.10;;;;;;;;;;5029559;28;20295;-84
2023/12/24 03:59:08;;;;;;;2.33;0.90;;;;;;;;;;5029378;28;20265;-87
2023/12/24 04:01:37;;;;;;;1.03;1.03;;;;;;;;;;5028637;28;20296;-84
2023/12/24 04:04:06;;;;;;;1.20;1.07;;;;;;;;;;5029122;28;20204;-86
2023/12/24 04:06:35;;;;;;;0.70;0.70;;;;;;;;;;5030008;28;20743;-84
2023/12/24 04:09:09;;;;;;;1.47;0.93;;;;;;;;;;5029353;28;20227;-84
2023/12/24 04:11:38;;;;;;;0.77;0.77;;;;;;;;;;5029384;28;20212;-85
2023/12/24 04:14:07;;;;;;;1.10;1.00;;;;;;;;;;5030555;28;20269;-85
2023/12/24 04:16:36;;;;;;;0.77;0.77;;;;;;;;;;5030826;28;20204;-85
2023/12/24 04:19:05;;;;;;;0.43;0.43;;;;;;;;;;5032454;28;20531;-84
2023/12/24 04:21:35;;;;;;;1.03;0.90;;;;;;;;;;5043112;28;20210;-83
2023/12/24 04:24:05;;;;;;;1.00;1.00;;;;;;;;;;5040505;28;20204;-84
2023/12/24 04:26:36;;;;;;;1.03;1.03;;;;;;;;;;5041791;28;20224;-83
2023/12/24 04:29:08;;;;;;;0.70;0.70;;;;;;;;;;5032730;28;20210;-84
2023/12/24 04:31:40;;;;;;;1.53;0.90;;;;;;;;;;5029220;28;20204;-84
2023/12/24 04:34:10;;;;;;;1.20;1.20;;;;;;;;;;5030069;28;20269;-85
2023/12/24 04:36:40;;;;;;;0.77;0.77;;;;;;;;;;5030315;28;20227;-84
2023/12/24 04:39:11;;;;;;;0.70;0.70;;;;;;;;;;5029117;28;20261;-84
2023/12/24 04:41:41;;;;;;;0.90;0.90;;;;;;;;;;5030032;28;20204;-84
2023/12/24 04:44:12;;;;;;;0.80;0.73;;;;;;;;;;5029986;28;20286;-85
2023/12/24 04:46:46;;;;;;;0.90;0.90;;;;;;;;;;5029338;28;20518;-84
2023/12/24 04:49:15;;;;;;;2.40;0.93;;;;;;;;;;5030143;28;20204;-85
2023/12/24 04:51:43;;;;;;;0.87;0.83;;;;;;;;;;5032066;28;20658;-84
2023/12/24 04:54:17;;;;;;;0.70;0.70;;;;;;;;;;5038427;28;20200;-85
2023/12/24 04:56:45;;;;;;;0.80;0.80;;;;;;;;;;5043154;28;20680;-84
2023/12/24 04:59:16;;;;;;;0.50;0.50;;;;;;;;;;5029208;28;20277;-84
2023/12/24 05:02:04;;;;;;;1.03;0.60;;;;;;;;;;5028767;28;20235;-83
2023/12/24 05:04:32;;;;;;;0.50;0.50;;;;;;;;;;5029268;28;20200;-85
2023/12/24 05:07:03;;;;;;;0.83;0.53;;;;;;;;;;5029691;28;20227;-84
2023/12/24 05:09:33;;;;;;;0.60;0.60;;;;;;;;;;5029245;28;20555;-83
2023/12/24 05:12:04;;;;;;;0.40;0.40;;;;;;;;;;5030087;28;20196;-84
2023/12/24 05:14:34;;;;;;;0.57;0.57;;;;;;;;;;5030580;28;20212;-84
2023/12/24 05:17:04;;;;;;;0.40;0.40;;;;;;;;;;5033644;28;20294;-84
2023/12/24 05:19:33;;;;;;;2.87;0.80;;;;;;;;;;5033423;28;20189;-84
2023/12/24 05:22:02;;;;;;;1.40;0.97;;;;;;;;;;5033310;28;20192;-85
2023/12/24 05:24:32;;;;;;;0.60;0.53;;;;;;;;;;5033131;28;20204;-85
2023/12/24 05:27:01;;;;;;;0.53;0.53;;;;;;;;;;5033468;28;20236;-84
2023/12/24 05:29:31;;;;;;;2.00;0.57;;;;;;;;;;5032002;28;20252;-85
2023/12/24 05:32:01;;;;;;;0.40;0.40;;;;;;;;;;5032177;28;20404;-85
2023/12/24 05:34:32;;;;;;;0.50;0.50;;;;;;;;;;5033179;28;20282;-84
2023/12/24 05:37:01;;;;;;;2.20;0.50;;;;;;;;;;5033449;28;20196;-85
2023/12/24 05:39:29;;;;;;;0.63;0.60;;;;;;;;;;5032535;28;20279;-84
2023/12/24 05:41:57;;;;;;;0.70;0.70;;;;;;;;;;5032565;28;20641;-86
2023/12/24 05:44:31;;;;;;;1.60;0.50;;;;;;;;;;5032313;28;20207;-83
2023/12/24 05:46:59;;;;;;;0.50;0.50;;;;;;;;;;5032174;28;20228;-84
2023/12/24 05:49:30;;;;;;;0.60;0.60;;;;;;;;;;5032356;28;20188;-83
2023/12/24 05:51:58;;;;;;;0.50;0.50;;;;;;;;;;5032917;28;20633;-83
2023/12/24 05:54:28;;;;;;;1.43;0.63;;;;;;;;;;5032907;28;20208;-86
2023/12/24 05:56:59;;;;;;;0.70;0.70;;;;;;;;;;5031780;28;20200;-85
2023/12/24 05:59:27;;;;;;;1.07;0.97;;;;;;;;;;5033075;28;20274;-84
2023/12/24 06:01:58;;;;;;;2.83;0.67;;;;;;;;;;5031911;28;20228;-85
2023/12/24 06:04:28;;;;;;;0.60;0.60;;;;;;;;;;5035750;28;20263;-85
2023/12/24 06:06:56;;;;;;;0.83;0.60;;;;;;;;;;5040048;28;20232;-84
2023/12/24 06:09:24;;;;;;;0.50;0.50;;;;;;;;;;5039438;28;20266;-84
2023/12/24 06:11:54;;;;;;;0.87;0.67;;;;;;;;;;5040262;28;20215;-84
2023/12/24 06:14:28;;;;;;;0.40;0.40;;;;;;;;;;5041272;28;20212;-84
2023/12/24 06:16:58;;;;;;;0.30;0.30;;;;;;;;;;5039297;28;20358;-86
2023/12/24 06:19:31;;;;;;;0.40;0.40;;;;;;;;;;5044491;28;20246;-84
2023/12/24 06:22:07;;;;;;;0.50;0.50;;;;;;;;;;5056362;28;20283;-84
2023/12/24 06:24:37;;;;;;;0.60;0.53;;;;;;;;;;5056671;28;20179;-84
2023/12/24 06:27:06;;;;;;;0.40;0.40;;;;;;;;;;5057443;28;20242;-84
2023/12/24 06:29:37;;;;;;;0.30;0.30;;;;;;;;;;5056325;28;20188;-83
2023/12/24 06:32:07;;;;;;;0.33;0.33;;;;;;;;;;5057591;28;20212;-86
2023/12/24 06:34:38;;;;;;;0.40;0.40;;;;;;;;;;5057610;28;20195;-85
2023/12/24 06:37:08;;;;;;;0.30;0.30;;;;;;;;;;5044620;28;20238;-85
2023/12/24 06:39:36;;;;;;;0.60;0.47;;;;;;;;;;5038392;28;20783;-84
2023/12/24 06:42:03;;;;;;;0.40;0.40;;;;;;;;;;5037059;28;20746;-84
2023/12/24 06:44:31;;;;;;;0.33;0.33;;;;;;;;;;5035019;28;20853;-86
2023/12/24 06:47:01;;;;;;;0.53;0.53;;;;;;;;;;5035519;28;20223;-85
2023/12/24 06:49:34;;;;;;;0.43;0.43;;;;;;;;;;5022262;28;20304;-84
2023/12/24 06:52:02;;;;;;;0.80;0.33;;;;;;;;;;5050369;28;20226;-85
2023/12/24 06:54:32;;;;;;;0.30;0.30;;;;;;;;;;5043279;28;20607;-84
2023/12/24 06:57:06;;;;;;;1.53;0.60;;;;;;;;;;5031098;28;20220;-84
2023/12/24 06:59:37;;;;;;;3.00;0.40;;;;;;;;;;5030309;28;20200;-84
2023/12/24 07:02:07;;;;;;;1.20;0.40;;;;;;;;;;5031100;28;20721;-84
2023/12/24 07:04:40;;;;;;;1.23;0.30;;;;;;;;;;5031970;28;20853;-84
2023/12/24 07:07:08;;;;;;;4.87;0.40;;;;;;;;;;5031493;28;20273;-83
2023/12/24 07:09:37;;;;;;;0.93;0.70;;;;;;;;;;5031651;28;20205;-84
2023/12/24 07:12:06;;;;;;;0.60;0.60;;;;;;;;;;5032024;28;20204;-84
2023/12/24 07:14:36;;;;;;;3.90;0.80;;;;;;;;;;5031701;28;20203;-84
2023/12/24 07:17:07;;;;;;;0.90;0.90;;;;;;;;;;5013425;28;20293;-84
2023/12/24 07:19:37;;;;;;;0.30;0.30;;;;;;;;;;5031726;28;20630;-84
2023/12/24 07:22:07;;;;;;;1.03;0.70;;;;;;;;;;5032296;28;20250;-83
2023/12/24 07:24:37;;;;;;;0.50;0.50;;;;;;;;;;5033413;28;20204;-84
2023/12/24 07:27:22;;;;;;;0.60;0.60;;;;;;;;;;5031461;28;20232;-84
2023/12/24 07:29:54;;;;;;;0.73;0.50;;;;;;;;;;5030968;28;20239;-83
2023/12/24 07:32:25;;;;;;;0.50;0.40;;;;;;;;;;5030479;28;20726;-84
2023/12/24 07:34:57;;;;;;;1.03;0.90;;;;;;;;;;5035066;28;20208;-84
2023/12/24 07:37:31;;;;;;;0.87;0.87;;;;;;;;;;5035147;28;20199;-85
2023/12/24 07:40:03;;;;;;;1.10;0.97;;;;;;;;;;5034038;28;20206;-83
2023/12/24 07:42:31;;;;;;;0.40;0.40;;;;;;;;;;5034837;28;20209;-84
2023/12/24 07:45:00;;;;;;;0.90;0.60;;;;;;;;;;5037092;28;20611;-84
2023/12/24 07:47:30;;;;;;;0.60;0.60;;;;;;;;;;5034458;28;20233;-84
2023/12/24 07:50:01;;;;;;;0.33;0.33;;;;;;;;;;5035946;28;20266;-84
2023/12/24 07:52:32;;;;;;;0.30;0.30;;;;;;;;;;5035391;28;20203;-84
2023/12/24 07:55:02;;;;;;;0.30;0.30;;;;;;;;;;5037004;28;20677;-85
2023/12/24 07:57:31;;;;;;;2.40;0.60;;;;;;;;;;5037619;28;20195;-84
2023/12/24 08:00:00;;;;;;;0.70;0.70;;;;;;;;;;5033670;28;20685;-85
2023/12/24 08:02:29;;;;;;;0.30;0.30;;;;;;;;;;5035732;28;20239;-84
2023/12/24 08:04:57;;;;;;;0.50;0.50;;;;;;;;;;5036926;28;20253;-84
2023/12/24 08:10:19;;;;;;;2.77;2.30;;;;;;;;;;5034495;28;20287;-83
2023/12/24 08:12:49;;;;;;;2.20;2.07;;;;;;;;;;5037659;28;20191;-84
2023/12/24 08:15:21;;;;;;;0.63;0.63;;;;;;;;;;5037544;28;20215;-84
2023/12/24 08:17:50;;;;;;;0.87;0.40;;;;;;;;;;5036782;28;20223;-85
2023/12/24 08:20:21;;;;;;;0.70;0.70;;;;;;;;;;5041773;28;20287;-85
2023/12/24 08:22:52;;;;;;;0.53;0.53;;;;;;;;;;5035492;28;20211;-84
2023/12/24 08:25:24;;;;;;;0.97;0.70;;;;;;;;;;5031959;28;20286;-84
2023/12/24 08:27:54;;;;;;;1.57;0.90;;;;;;;;;;5030671;28;20593;-84
2023/12/24 08:30:24;;;;;;;1.07;1.07;;;;;;;;;;5020278;28;20596;-84
2023/12/24 08:32:54;;;;;;;0.80;0.80;;;;;;;;;;5033344;28;20248;-84
2023/12/24 08:35:25;;;;;;;0.57;0.57;;;;;;;;;;5035307;28;20230;-83
2023/12/24 08:37:56;;;;;;;0.50;0.50;;;;;;;;;;5034556;28;20231;-85
2023/12/24 08:40:27;;;;;;;1.10;0.70;;;;;;;;;;5034283;28;20222;-83
2023/12/24 08:42:58;;;;;;;1.60;0.90;;;;;;;;;;5031405;28;20699;-85
2023/12/24 08:45:29;;;;;;;0.90;0.90;;;;;;;;;;5033691;28;20270;-85
2023/12/24 08:47:59;;;;;;;0.53;0.50;;;;;;;;;;5033092;28;20239;-83
2023/12/24 08:50:31;;;;;;;0.80;0.80;;;;;;;;;;5040978;28;20250;-83
2023/12/24 08:53:03;;;;;;;2.63;1.60;;;;;;;;;;5055466;28;20289;-83
2023/12/24 08:55:35;;;;;;;2.60;1.63;;;;;;;;;;5041271;28;20227;-83
2023/12/24 08:58:08;;;;;;;1.67;1.57;;;;;;;;;;5036421;28;20234;-85
2023/12/24 09:00:40;;;;;;;2.00;1.87;;;;;;;;;;5032333;28;20658;-84
2023/12/24 09:03:09;;;;;;;0.80;0.80;;;;;;;;;;5036581;28;20237;-85
2023/12/24 09:05:42;;;;;;;0.90;0.70;;;;;;;;;;5032252;28;20241;-85
2023/12/24 09:08:13;;;;;;;0.97;0.97;;;;;;;;;;5041913;28;20303;-84
2023/12/24 09:10:42;;;;;;;1.38;1.17;;;;;;;;;;5029658;28;20223;-83
2023/12/24 09:13:12;;;;;;;0.82;0.73;;;;;;;;;;5054571;28;20217;-84
2023/12/24 09:15:41;;;;;;;2.60;1.27;;;;;;;;;;5041977;28;20227;-83
2023/12/24 09:18:10;;;;;;;2.42;1.73;;;;;;;;;;5033980;28;20213;-83
2023/12/24 09:20:40;;;;;;;4.15;2.08;;;;;;;;;;5031303;28;20246;-85
2023/12/24 09:23:11;;;;;;;0.75;0.75;;;;;;;;;;5033784;28;20249;-85
2023/12/24 09:25:40;;;;;;;4.43;1.15;;;;;;;;;;5031789;28;20254;-83
2023/12/24 09:28:09;;;;;;;0.90;0.88;;;;;;;;;;5032634;28;20246;-84
2023/12/24 09:30:37;;;;;;;0.82;0.82;;;;;;;;;;5026567;28;20240;-84
2023/12/24 09:33:06;;;;;;;0.90;0.90;;;;;;;;;;5031765;28;20242;-84
2023/12/24 09:35:38;;;;;;;0.98;0.90;;;;;;;;;;5024839;28;20236;-84
2023/12/24 09:38:07;;;;;;;0.82;0.82;;;;;;;;;;5032143;28;20281;-84
2023/12/24 09:40:38;;;;;;;1.08;1.08;;;;;;;;;;5030668;28;20228;-85
2023/12/24 09:43:08;;;;;;;1.05;1.00;;;;;;;;;;5030832;28;20287;-85
2023/12/24 09:45:37;;;;;;;1.40;0.90;;;;;;;;;;5029295;28;20277;-83
2023/12/24 09:48:06;;;;;;;0.70;0.70;;;;;;;;;;5031118;28;20677;-84
2023/12/24 09:50:35;;;;;;;2.05;0.75;;;;;;;;;;5031107;28;20228;-83
2023/12/24 09:53:07;;;;;;;0.70;0.70;;;;;;;;;;5033107;28;20231;-83
2023/12/24 09:55:34;;;;;;;2.67;1.00;;;;;;;;;;5030596;28;20219;-84
2023/12/24 09:58:05;;;;;;;1.45;1.13;;;;;;;;;;5033633;28;20280;-83
2023/12/24 10:00:34;;;;;;;0.88;0.88;;;;;;;;;;5032499;28;20234;-85
2023/12/24 10:03:05;;;;;;;3.60;1.27;;;;;;;;;;5032422;28;20289;-85
2023/12/24 10:05:59;;;;;;;4.68;0.90;;;;;;;;;;5029032;28;20228;-85
2023/12/24 10:08:28;;;;;;;2.78;1.10;;;;;;;;;;5033408;28;20735;-84
2023/12/24 10:11:15;;;;;;;1.40;1.08;;;;;;;;;;5023426;28;20601;-84
2023/12/24 10:13:46;;;;;;;4.18;0.88;;;;;;;;;;5032293;28;20231;-82
2023/12/24 10:16:17;;;;;;;1.50;1.30;;;;;;;;;;5022863;28;20235;-83
2023/12/24 10:18:50;;;;;;;2.90;1.17;;;;;;;;;;5031634;28;20231;-84
2023/12/24 10:21:18;;;;;;;0.93;0.93;;;;;;;;;;5029409;28;20321;-83
2023/12/24 10:23:46;;;;;;;0.95;0.90;;;;;;;;;;5031426;28;20223;-83
2023/12/24 10:26:14;;;;;;;1.10;1.10;;;;;;;;;;5030668;28;20256;-82
2023/12/24 10:28:58;;;;;;;2.53;1.15;;;;;;;;;;5031849;28;20627;-84
2023/12/24 10:31:29;;;;;;;1.38;1.00;;;;;;;;;;5025571;28;20247;-83
2023/12/24 10:34:00;;;;;;;1.02;1.02;;;;;;;;;;5029972;28;20231;-84
2023/12/24 10:36:31;;;;;;;0.88;0.88;;;;;;;;;;5027585;28;20285;-85
2023/12/24 10:38:59;;;;;;;0.70;0.70;;;;;;;;;;5034646;28;20239;-83
2023/12/24 10:41:29;;;;;;;1.58;0.80;;;;;;;;;;5028051;28;20262;-83
2023/12/24 10:43:58;;;;;;;0.60;0.60;;;;;;;;;;5031258;28;20235;-84
2023/12/24 10:46:27;;;;;;;1.45;1.38;;;;;;;;;;5030623;28;20853;-83
2023/12/24 10:48:54;;;;;;;1.70;1.00;;;;;;;;;;5029372;28;20239;-85
2023/12/24 10:51:25;;;;;;;2.08;1.00;;;;;;;;;;5027992;28;20303;-83
2023/12/24 10:53:57;;;;;;;1.30;0.98;;;;;;;;;;5030485;28;20242;-82
2023/12/24 10:56:28;;;;;;;0.75;0.68;;;;;;;;;;5026373;28;20228;-85
2023/12/24 10:58:58;;;;;;;1.10;1.10;;;;;;;;;;5030312;28;20227;-83
2023/12/24 11:01:27;;;;;;;0.80;0.80;;;;;;;;;;5029809;28;20239;-84
2023/12/24 11:03:56;;;;;;;1.20;0.90;;;;;;;;;;5032169;28;20342;-85
2023/12/24 11:06:42;;;;;;;3.58;1.05;;;;;;;;;;5047424;28;20263;-84
2023/12/24 11:09:34;;;;;;;0.90;0.90;;;;;;;;;;5051371;28;20243;-83
2023/12/24 11:12:05;;;;;;;2.58;1.17;;;;;;;;;;5040118;28;20561;-83
2023/12/24 11:14:41;;;;;;;4.15;1.13;;;;;;;;;;5029127;28;20236;-85
2023/12/24 11:17:36;;;;;;;4.20;1.23;;;;;;;;;;5027073;28;20740;-82
2023/12/24 11:20:21;;;;;;;1.33;1.15;;;;;;;;;;5028918;28;20733;-85
2023/12/24 11:23:10;;;;;;;1.00;1.00;;;;;;;;;;5026612;28;20627;-83
2023/12/24 11:25:40;;;;;;;0.80;0.80;;;;;;;;;;5028766;28;20229;-85
2023/12/24 11:28:09;;;;;;;1.00;0.90;;;;;;;;;;5024702;28;20248;-85
2023/12/24 11:30:56;;;;;;;0.95;0.95;;;;;;;;;;5029653;28;20238;-83
2023/12/24 11:33:35;;;;;;;0.85;0.85;;;;;;;;;;5005951;28;20249;-84
2023/12/24 11:36:11;;;;;;;1.85;1.10;;;;;;;;;;5009342;28;20239;-83
2023/12/24 11:38:45;;;;;;;7.68;0.80;;;;;;;;;;5007190;28;20234;-85
2023/12/24 11:41:15;;;;;;;0.98;0.93;;;;;;;;;;5009419;28;20363;-84
2023/12/24 11:43:45;;;;;;;1.13;0.60;;;;;;;;;;5006639;28;20247;-85
2023/12/24 11:46:15;;;;;;;1.40;0.60;;;;;;;;;;5010283;28;20317;-84
2023/12/24 11:48:46;;;;;;;9.85;1.17;;;;;;;;;;5008983;28;20243;-84
2023/12/24 11:51:16;;;;;;;2.73;0.90;;;;;;;;;;5012468;28;20253;-84
2023/12/24 11:53:46;;;;;;;5.95;0.80;;;;;;;;;;5006902;28;20229;-84
2023/12/24 11:56:17;;;;;;;1.58;1.15;;;;;;;;;;5016740;28;20234;-83
2023/12/24 11:59:00;;;;;;;0.80;0.80;;;;;;;;;;5022780;28;20227;-85
2023/12/24 12:01:31;;;;;;;2.45;1.27;;;;;;;;;;5034028;28;20232;-82
2023/12/24 12:04:03;;;;;;;5.57;1.05;;;;;;;;;;5049506;28;20341;-83
2023/12/24 12:06:34;;;;;;;4.93;1.50;;;;;;;;;;5031434;28;20236;-83
2023/12/24 12:09:06;;;;;;;1.10;1.00;;;;;;;;;;5028950;28;20263;-83
2023/12/24 12:11:35;;;;;;;2.70;1.58;;;;;;;;;;5028810;28;20224;-84
2023/12/24 12:14:05;;;;;;;2.25;0.93;;;;;;;;;;5025299;28;20717;-84
2023/12/24 12:16:35;;;;;;;1.67;1.10;;;;;;;;;;5028218;28;20234;-84
2023/12/24 12:19:04;;;;;;;5.13;1.02;;;;;;;;;;5026625;28;20253;-84
2023/12/24 12:21:31;;;;;;;1.65;1.00;;;;;;;;;;5030243;28;20589;-83
2023/12/24 12:23:59;;;;;;;1.07;1.07;;;;;;;;;;5030200;28;20255;-84
2023/12/24 12:26:28;;;;;;;1.20;0.90;;;;;;;;;;5029292;28;20231;-84
2023/12/24 12:28:55;;;;;;;0.73;0.73;;;;;;;;;;5030365;28;20672;-84
2023/12/24 12:31:24;;;;;;;2.20;0.77;;;;;;;;;;5026127;28;20496;-84
2023/12/24 12:33:52;;;;;;;0.87;0.87;;;;;;;;;;5029881;28;20660;-85
2023/12/24 12:36:21;;;;;;;2.97;0.90;;;;;;;;;;5029849;28;20714;-83
2023/12/24 12:38:50;;;;;;;1.50;0.90;;;;;;;;;;5029006;28;20240;-84
2023/12/24 12:41:18;;;;;;;0.98;0.98;;;;;;;;;;5031760;28;20202;-83
2023/12/24 12:43:46;;;;;;;1.50;1.08;;;;;;;;;;5032493;28;20676;-85
2023/12/24 12:46:17;;;;;;;4.03;1.20;;;;;;;;;;5032604;28;20252;-83
2023/12/24 12:48:46;;;;;;;3.53;1.20;;;;;;;;;;5031159;28;20605;-83
2023/12/24 12:51:15;;;;;;;7.32;3.65;;;;;;;;;;5031112;28;20288;-84
2023/12/24 12:53:46;;;;;;;2.63;1.25;;;;;;;;;;5023103;28;20246;-83
2023/12/24 12:56:14;;;;;;;2.80;1.50;;;;;;;;;;5027796;28;20257;-85
2023/12/24 12:58:51;;;;;;;2.53;1.13;;;;;;;;;;5028732;28;20317;-84
2023/12/24 13:01:23;;;;;;;1.60;1.15;;;;;;;;;;5033737;28;20327;-85
2023/12/24 13:04:01;;;;;;;3.35;1.40;;;;;;;;;;5032225;28;20261;-84
2023/12/24 13:06:29;;;;;;;0.95;0.82;;;;;;;;;;5037651;28;20308;-82
2023/12/24 13:09:09;;;;;;;2.83;1.23;;;;;;;;;;5030894;28;21556;-84
2023/12/24 13:11:39;;;;;;;1.38;1.27;;;;;;;;;;5029535;28;20284;-83
2023/12/24 13:14:08;;;;;;;3.83;1.80;;;;;;;;;;5028970;28;20231;-82
2023/12/24 13:16:37;;;;;;;2.38;1.20;;;;;;;;;;5031196;28;20688;-83
2023/12/24 13:19:15;;;;;;;1.25;0.95;;;;;;;;;;5026722;28;20226;-84
2023/12/24 13:21:43;;;;;;;1.63;0.95;;;;;;;;;;5028923;28;20524;-85
2023/12/24 13:24:14;;;;;;;4.22;1.25;;;;;;;;;;5027766;28;20234;-84
2023/12/24 13:26:45;;;;;;;1.67;0.63;;;;;;;;;;5028565;28;20246;-84
2023/12/24 13:29:13;;;;;;;2.97;1.13;;;;;;;;;;5022679;28;20281;-83
2023/12/24 13:31:45;;;;;;;1.65;0.85;;;;;;;;;;5029476;28;20293;-83
2023/12/24 13:34:17;;;;;;;1.70;0.68;;;;;;;;;;5027351;28;20238;-84
2023/12/24 13:36:44;;;;;;;4.43;0.90;;;;;;;;;;5048055;28;20232;-84
2023/12/24 13:39:15;;;;;;;3.30;0.82;;;;;;;;;;5041699;28;20323;-85
2023/12/24 13:41:43;;;;;;;1.20;1.20;;;;;;;;;;5033225;28;20370;-83
2023/12/24 13:44:14;;;;;;;3.70;1.50;;;;;;;;;;5025191;28;20311;-84
2023/12/24 13:46:43;;;;;;;1.10;1.10;;;;;;;;;;5031949;28;20313;-83
2023/12/24 13:49:10;;;;;;;5.10;1.30;;;;;;;;;;5025613;28;20235;-84
2023/12/24 13:51:39;;;;;;;4.13;1.97;;;;;;;;;;5032478;28;20291;-85
2023/12/24 13:54:07;;;;;;;5.57;1.77;;;;;;;;;;5032309;28;20289;-85
2023/12/24 13:56:37;;;;;;;3.80;1.07;;;;;;;;;;5032574;28;20326;-83
2023/12/24 13:59:07;;;;;;;1.60;1.40;;;;;;;;;;5033134;28;20644;-83
2023/12/24 14:01:40;;;;;;;2.03;1.50;;;;;;;;;;5032676;28;20258;-84
2023/12/24 14:04:09;;;;;;;5.00;0.60;;;;;;;;;;5033477;28;20660;-84
2023/12/24 14:06:38;;;;;;;1.03;1.03;;;;;;;;;;5031030;28;20227;-84
2023/12/24 14:09:08;;;;;;;0.90;0.90;;;;;;;;;;5031990;28;20246;-83
2023/12/24 14:11:39;;;;;;;3.90;1.20;;;;;;;;;;5028964;28;20228;-83
2023/12/24 14:14:08;;;;;;;1.37;1.00;;;;;;;;;;5033666;28;20306;-84
2023/12/24 14:16:37;;;;;;;1.57;1.43;;;;;;;;;;5031777;28;20239;-84
2023/12/24 14:19:07;;;;;;;1.57;1.10;;;;;;;;;;5033911;28;20239;-84
2023/12/24 14:21:34;;;;;;;4.67;1.73;;;;;;;;;;5026853;28;20231;-84
2023/12/24 14:24:04;;;;;;;1.43;1.43;;;;;;;;;;5035940;28;20287;-83
2023/12/24 14:26:34;;;;;;;1.63;1.20;;;;;;;;;;5031442;28;20302;-84
2023/12/24 14:29:04;;;;;;;2.00;1.20;;;;;;;;;;5033363;28;20316;-86
2023/12/24 14:31:33;;;;;;;2.53;1.00;;;;;;;;;;5034199;28;20254;-84
2023/12/24 14:34:03;;;;;;;2.77;1.03;;;;;;;;;;5033800;28;20279;-83
2023/12/24 14:36:32;;;;;;;2.57;1.03;;;;;;;;;;5032169;28;20239;-85
2023/12/24 14:39:03;;;;;;;0.60;0.60;;;;;;;;;;5034008;28;20304;-84
2023/12/24 14:41:36;;;;;;;1.47;1.17;;;;;;;;;;5028891;28;20303;-83
2023/12/24 14:44:07;;;;;;;2.83;1.00;;;;;;;;;;5036366;28;20226;-84
2023/12/24 14:46:37;;;;;;;4.27;1.10;;;;;;;;;;5030406;28;20282;-84
2023/12/24 14:49:07;;;;;;;4.60;1.47;;;;;;;;;;5029907;28;20696;-84
2023/12/24 14:51:37;;;;;;;3.13;0.83;;;;;;;;;;5028030;28;20231;-85
2023/12/24 14:54:07;;;;;;;6.70;1.20;;;;;;;;;;5032708;28;20254;-83
2023/12/24 14:56:38;;;;;;;5.97;1.57;;;;;;;;;;5042670;28;20302;-84
2023/12/24 14:59:10;;;;;;;4.73;2.43;;;;;;;;;;5046249;28;20223;-85
2023/12/24 15:01:45;;;;;;;2.10;1.50;;;;;;;;;;5047766;28;20240;-85
2023/12/24 15:04:22;;;;;;;6.03;2.37;;;;;;;;;;5051588;28;20227;-81